createdAt,value
2023-02-13T00:01:17.608Z,8.90
2023-02-13T00:03:45.410Z,7.10
2023-02-13T00:06:13.298Z,7.17
2023-02-13T00:08:41.094Z,6.70
2023-02-13T00:11:08.901Z,7.90
2023-02-13T00:13:38.071Z,8.10
2023-02-13T00:16:06.852Z,6.73
2023-02-13T00:18:36.511Z,8.07
2023-02-13T00:21:06.514Z,8.20
2023-02-13T00:23:35.703Z,6.90
2023-02-13T00:26:07.453Z,7.07
2023-02-13T00:28:37.008Z,6.73
2023-02-13T00:31:07.056Z,6.67
2023-02-13T00:33:35.488Z,8.40
2023-02-13T00:36:07.870Z,7.67
2023-02-13T00:38:36.188Z,6.90
2023-02-13T00:41:04.757Z,7.57
2023-02-13T00:43:33.368Z,7.50
2023-02-13T00:46:02.692Z,7.60
2023-02-13T00:48:32.257Z,8.50
2023-02-13T00:51:00.627Z,7.00
2023-02-13T00:53:28.797Z,6.80
2023-02-13T00:55:56.721Z,7.10
2023-02-13T00:58:25.191Z,6.93
2023-02-13T01:00:53.856Z,7.90
2023-02-13T01:03:23.783Z,6.63
2023-02-13T01:05:52.056Z,6.13
2023-02-13T01:08:21.555Z,7.70
2023-02-13T01:10:49.938Z,7.33
2023-02-13T01:13:19.290Z,7.77
2023-02-13T01:15:48.619Z,7.20
2023-02-13T01:18:17.763Z,6.70
2023-02-13T01:20:56.248Z,7.77
2023-02-13T01:23:24.178Z,8.07
2023-02-13T01:25:52.085Z,6.60
2023-02-13T01:28:19.987Z,6.83
2023-02-13T01:30:54.584Z,7.60
2023-02-13T01:33:22.920Z,7.60
2023-02-13T01:35:52.384Z,7.20
2023-02-13T01:38:20.309Z,7.00
2023-02-13T01:40:48.974Z,7.63
2023-02-13T01:43:17.358Z,7.63
2023-02-13T01:45:46.671Z,7.17
2023-02-13T01:48:18.307Z,6.23
2023-02-13T01:50:50.231Z,7.33
2023-02-13T01:53:25.555Z,7.90
2023-02-13T01:55:56.735Z,6.83
2023-02-13T01:58:27.222Z,8.03
2023-02-13T02:00:55.294Z,8.67
2023-02-13T02:03:28.718Z,7.23
2023-02-13T02:06:00.048Z,7.60
2023-02-13T02:08:31.076Z,7.87
2023-02-13T02:11:03.524Z,9.57
2023-02-13T02:13:31.289Z,8.70
2023-02-13T02:15:59.138Z,7.97
2023-02-13T02:18:26.913Z,8.00
2023-02-13T02:21:31.134Z,8.03
2023-02-13T02:24:25.582Z,9.53
2023-02-13T02:27:29.787Z,7.60
2023-02-13T02:30:39.609Z,6.40
2023-02-13T02:33:17.884Z,7.90
2023-02-13T02:35:56.627Z,8.07
2023-02-13T02:38:37.575Z,6.70
2023-02-13T02:41:11.260Z,8.77
2023-02-13T02:43:54.288Z,7.50
2023-02-13T02:46:29.048Z,7.80
2023-02-13T02:49:23.340Z,8.10
2023-02-13T02:52:03.510Z,7.27
2023-02-13T02:54:53.500Z,6.63
2023-02-13T02:57:25.631Z,8.37
2023-02-13T03:00:26.946Z,6.50
2023-02-13T03:03:13.030Z,8.33
2023-02-13T03:06:03.057Z,7.27
2023-02-13T03:08:45.241Z,6.93
2023-02-13T03:11:30.324Z,7.33
2023-02-13T03:14:01.801Z,8.37
2023-02-13T03:16:47.413Z,8.23
2023-02-13T03:19:41.447Z,7.63
2023-02-13T03:22:23.567Z,9.50
2023-02-13T03:25:01.294Z,7.70
2023-02-13T03:27:57.001Z,7.40
2023-02-13T03:30:35.189Z,8.27
2023-02-13T03:33:13.907Z,7.63
2023-02-13T03:36:05.668Z,7.20
2023-02-13T03:38:43.025Z,7.73
2023-02-13T03:41:22.179Z,8.90
2023-02-13T03:44:07.509Z,9.40
2023-02-13T03:46:39.927Z,7.80
2023-02-13T03:49:28.963Z,9.30
2023-02-13T03:52:02.702Z,9.30
2023-02-13T03:54:53.458Z,10.20
2023-02-13T03:57:40.918Z,8.80
2023-02-13T04:00:12.803Z,6.97
2023-02-13T04:02:44.355Z,7.53
2023-02-13T04:05:17.312Z,7.73
2023-02-13T04:07:45.569Z,8.13
2023-02-13T04:10:17.231Z,6.50
2023-02-13T04:12:52.156Z,7.10
2023-02-13T04:15:23.709Z,7.03
2023-02-13T04:17:54.430Z,7.57
2023-02-13T04:20:22.364Z,8.10
2023-02-13T04:22:50.100Z,8.60
2023-02-13T04:25:20.688Z,6.67
2023-02-13T04:27:48.463Z,7.40
2023-02-13T04:30:16.488Z,6.63
2023-02-13T04:32:44.269Z,7.10
2023-02-13T04:35:13.657Z,7.10
2023-02-13T04:37:41.540Z,7.93
2023-02-13T04:40:10.803Z,8.50
2023-02-13T04:42:39.936Z,7.80
2023-02-13T04:45:08.238Z,6.73
2023-02-13T04:47:36.104Z,8.20
2023-02-13T04:50:03.929Z,7.43
2023-02-13T04:52:31.723Z,7.03
2023-02-13T04:54:59.760Z,8.00
2023-02-13T04:57:27.520Z,7.07
2023-02-13T04:59:56.644Z,8.37
2023-02-13T05:02:24.434Z,7.43
2023-02-13T05:04:52.245Z,7.53
2023-02-13T05:07:20.008Z,10.47
2023-02-13T05:09:47.778Z,8.27
2023-02-13T05:12:15.592Z,8.40
2023-02-13T05:14:43.482Z,9.43
2023-02-13T05:17:12.614Z,8.00
2023-02-13T05:19:40.376Z,9.57
2023-02-13T05:22:25.626Z,9.40
2023-02-13T05:24:53.382Z,7.53
2023-02-13T05:27:21.230Z,8.70
2023-02-13T05:29:49.015Z,7.67
2023-02-13T05:32:18.156Z,7.33
2023-02-13T05:34:46.006Z,7.23
2023-02-13T05:37:13.753Z,7.00
2023-02-13T05:39:41.526Z,7.70
2023-02-13T05:42:10.506Z,8.60
2023-02-13T05:44:38.289Z,8.60
2023-02-13T05:47:06.414Z,7.63
2023-02-13T05:49:35.616Z,7.77
2023-02-13T05:52:03.410Z,7.17
2023-02-13T05:54:31.209Z,7.73
2023-02-13T05:56:58.988Z,7.23
2023-02-13T05:59:26.771Z,8.40
2023-02-13T06:01:54.676Z,8.30
2023-02-13T06:04:22.458Z,7.97
2023-02-13T06:06:51.556Z,9.67
2023-02-13T06:09:19.329Z,9.30
2023-02-13T06:11:47.066Z,8.70
2023-02-13T06:14:15.204Z,7.63
2023-02-13T06:16:43.068Z,9.47
2023-02-13T06:19:10.901Z,8.80
2023-02-13T06:21:38.897Z,8.97
2023-02-13T06:24:09.249Z,8.50
2023-02-13T06:26:37.065Z,7.77
2023-02-13T06:29:06.496Z,9.00
2023-02-13T06:31:34.699Z,7.80
2023-02-13T06:34:02.487Z,8.70
2023-02-13T06:36:30.416Z,8.17
2023-02-13T06:38:58.179Z,7.40
2023-02-13T06:41:27.361Z,8.63
2023-02-13T06:43:55.275Z,7.90
2023-02-13T06:46:23.090Z,9.30
2023-02-13T06:48:50.992Z,8.80
2023-02-13T06:51:18.742Z,7.17
2023-02-13T06:53:46.472Z,7.40
2023-02-13T06:56:14.232Z,9.27
2023-02-13T06:58:43.423Z,9.17
2023-02-13T07:01:11.210Z,8.47
2023-02-13T07:03:39.109Z,8.20
2023-02-13T07:06:07.305Z,8.53
2023-02-13T07:08:35.070Z,7.53
2023-02-13T07:11:02.826Z,8.30
2023-02-13T07:13:30.610Z,8.03
2023-02-13T07:16:02.885Z,8.90
2023-02-13T07:18:30.699Z,8.57
2023-02-13T07:20:59.376Z,8.20
2023-02-13T07:23:27.458Z,8.90
2023-02-13T07:25:55.361Z,7.50
2023-02-13T07:28:23.162Z,7.90
2023-02-13T07:30:50.896Z,8.80
2023-02-13T07:33:20.070Z,8.27
2023-02-13T07:35:48.458Z,9.63
2023-02-13T07:38:16.448Z,9.53
2023-02-13T07:40:44.307Z,7.50
2023-02-13T07:43:12.113Z,8.70
2023-02-13T07:45:39.930Z,8.50
2023-02-13T07:48:07.783Z,7.63
2023-02-13T07:50:36.874Z,8.13
2023-02-13T07:53:04.640Z,8.57
2023-02-13T07:55:32.616Z,9.00
2023-02-13T07:58:01.865Z,7.37
2023-02-13T08:00:29.757Z,9.40
2023-02-13T08:03:00.260Z,8.43
2023-02-13T08:05:28.309Z,7.47
2023-02-13T08:07:57.450Z,7.90
2023-02-13T08:10:42.673Z,8.80
2023-02-13T08:13:11.714Z,8.17
2023-02-13T08:15:39.538Z,8.27
2023-02-13T08:18:07.683Z,8.57
2023-02-13T08:20:35.654Z,10.10
2023-02-13T08:23:05.812Z,8.90
2023-02-13T08:25:33.975Z,8.17
2023-02-13T08:28:02.585Z,7.57
2023-02-13T08:30:30.359Z,8.33
2023-02-13T08:32:58.132Z,8.40
2023-02-13T08:35:29.482Z,8.77
2023-02-13T08:37:57.263Z,8.40
2023-02-13T08:40:26.359Z,8.20
2023-02-13T08:42:55.356Z,8.37
2023-02-13T08:45:23.581Z,9.50
2023-02-13T08:47:51.313Z,9.73
2023-02-13T08:50:19.289Z,9.03
2023-02-13T08:52:47.089Z,9.90
2023-02-13T08:55:15.011Z,8.40
2023-02-13T08:57:44.134Z,8.07
2023-02-13T09:00:12.838Z,7.80
2023-02-13T09:02:40.637Z,7.40
2023-02-13T09:05:08.771Z,8.30
2023-02-13T09:07:36.573Z,7.97
2023-02-13T09:10:04.330Z,9.00
2023-02-13T09:12:33.141Z,8.17
2023-02-13T09:15:02.230Z,8.23
2023-02-13T09:17:29.997Z,9.03
2023-02-13T09:19:57.756Z,9.50
2023-02-13T09:22:25.627Z,9.13
2023-02-13T09:24:53.392Z,8.80
2023-02-13T09:27:21.194Z,8.70
2023-02-13T09:29:48.982Z,9.03
2023-02-13T09:32:18.160Z,8.27
2023-02-13T09:34:45.947Z,9.90
2023-02-13T09:37:13.808Z,8.53
2023-02-13T09:39:41.751Z,9.00
2023-02-13T09:42:18.390Z,7.70
2023-02-13T09:44:49.024Z,9.67
2023-02-13T09:47:25.975Z,9.70
2023-02-13T09:49:56.671Z,9.97
2023-02-13T09:52:24.666Z,9.63
2023-02-13T09:54:52.408Z,9.33
2023-02-13T09:57:26.411Z,8.67
2023-02-13T10:00:01.663Z,8.90
2023-02-13T10:02:54.408Z,9.27
2023-02-13T10:05:38.430Z,10.97
2023-02-13T10:08:16.221Z,9.80
2023-02-13T10:10:52.061Z,8.80
2023-02-13T10:13:34.308Z,9.10
2023-02-13T10:16:09.700Z,9.60
2023-02-13T10:18:48.106Z,10.70
2023-02-13T10:21:16.779Z,9.60
2023-02-13T10:23:48.662Z,8.53
2023-02-13T10:26:21.888Z,8.57
2023-02-13T10:29:10.390Z,10.23
2023-02-13T10:31:40.428Z,10.60
2023-02-13T10:34:15.266Z,9.77
2023-02-13T10:36:45.925Z,9.37
2023-02-13T10:39:24.759Z,10.93
2023-02-13T10:41:54.621Z,10.53
2023-02-13T10:44:35.019Z,9.40
2023-02-13T10:47:15.537Z,11.63
2023-02-13T10:49:59.279Z,10.73
2023-02-13T10:52:40.422Z,10.37
2023-02-13T10:55:24.022Z,13.70
2023-02-13T10:58:07.674Z,11.17
2023-02-13T11:00:41.323Z,9.60
2023-02-13T11:03:19.541Z,9.60
2023-02-13T11:05:49.679Z,9.60
2023-02-13T11:08:22.037Z,11.50
2023-02-13T11:10:50.548Z,10.50
2023-02-13T11:13:21.152Z,10.33
2023-02-13T11:16:01.859Z,10.00
2023-02-13T11:18:31.944Z,11.43
2023-02-13T11:21:03.973Z,11.43
2023-02-13T11:23:44.824Z,8.93
2023-02-13T11:26:16.166Z,9.37
2023-02-13T11:28:51.663Z,10.27
2023-02-13T11:31:26.558Z,8.10
2023-02-13T11:33:54.780Z,8.80
2023-02-13T11:36:29.588Z,9.13
2023-02-13T11:39:02.531Z,8.97
2023-02-13T11:41:31.582Z,10.50
2023-02-13T11:44:02.140Z,10.07
2023-02-13T11:46:32.112Z,11.07
2023-02-13T11:49:02.786Z,10.97
2023-02-13T11:51:41.983Z,10.47
2023-02-13T11:54:34.255Z,9.77
2023-02-13T11:57:05.837Z,11.10
2023-02-13T11:59:42.507Z,10.10
2023-02-13T12:02:20.200Z,10.00
2023-02-13T12:04:49.880Z,11.50
2023-02-13T12:07:25.624Z,11.10
2023-02-13T12:10:01.725Z,9.40
2023-02-13T12:12:36.460Z,10.13
2023-02-13T12:15:16.299Z,9.20
2023-02-13T12:17:45.499Z,10.00
2023-02-13T12:20:15.191Z,9.67
2023-02-13T12:22:55.507Z,12.00
2023-02-13T12:25:41.218Z,10.80
2023-02-13T12:28:14.707Z,9.97
2023-02-13T12:31:09.030Z,10.10
2023-02-13T12:33:56.587Z,10.10
2023-02-13T12:36:29.462Z,9.00
2023-02-13T12:39:11.037Z,9.90
2023-02-13T12:41:47.666Z,10.10
2023-02-13T12:44:41.405Z,9.40
2023-02-13T12:47:17.306Z,8.43
2023-02-13T12:50:23.000Z,9.80
2023-02-13T12:53:02.884Z,11.07
2023-02-13T12:55:47.063Z,10.30
2023-02-13T12:58:31.873Z,11.40
2023-02-13T13:01:07.359Z,12.15
2023-02-13T13:03:43.826Z,11.30
2023-02-13T13:06:27.608Z,10.30
2023-02-13T13:09:29.511Z,12.93
2023-02-13T13:12:17.898Z,10.30
2023-02-13T13:14:54.774Z,9.33
2023-02-13T13:17:44.130Z,9.60
2023-02-13T13:20:39.152Z,10.80
2023-02-13T13:23:12.551Z,9.77
2023-02-13T13:25:50.057Z,9.30
2023-02-13T13:28:23.116Z,8.70
2023-02-13T13:30:52.039Z,7.50
2023-02-13T13:33:21.525Z,9.57
2023-02-13T13:35:57.578Z,7.93
2023-02-13T13:38:38.242Z,9.20
2023-02-13T13:41:12.730Z,7.27
2023-02-13T13:43:51.080Z,8.60
2023-02-13T13:46:24.984Z,8.20
2023-02-13T13:49:11.070Z,7.37
2023-02-13T13:51:39.181Z,9.73
2023-02-13T13:54:34.302Z,9.07
2023-02-13T13:57:12.937Z,8.53
2023-02-13T14:00:14.532Z,8.50
2023-02-13T14:02:47.077Z,8.17
2023-02-13T14:05:30.391Z,8.53
2023-02-13T14:08:00.314Z,8.50
2023-02-13T14:11:01.380Z,10.30
2023-02-13T14:13:34.744Z,8.87
2023-02-13T14:16:03.033Z,9.60
2023-02-13T14:18:33.047Z,8.40
2023-02-13T14:21:03.480Z,7.77
2023-02-13T14:23:49.928Z,8.40
2023-02-13T14:26:30.999Z,8.63
2023-02-13T14:29:13.455Z,8.70
2023-02-13T14:31:44.497Z,8.70
2023-02-13T14:34:30.446Z,8.60
2023-02-13T14:37:20.558Z,9.67
2023-02-13T14:40:24.844Z,7.77
2023-02-13T14:42:55.843Z,9.07
2023-02-13T14:45:27.175Z,8.20
2023-02-13T14:47:58.056Z,6.93
2023-02-13T14:50:30.526Z,8.23
2023-02-13T14:53:04.318Z,8.20
2023-02-13T14:55:36.457Z,7.87
2023-02-13T14:58:11.809Z,7.97
2023-02-13T15:00:44.960Z,7.43
2023-02-13T15:03:25.348Z,7.87
2023-02-13T15:05:57.562Z,8.57
2023-02-13T15:08:28.523Z,9.30
2023-02-13T15:10:58.173Z,8.43
2023-02-13T15:13:33.018Z,8.10
2023-02-13T15:16:03.825Z,9.13
2023-02-13T15:18:33.893Z,7.73
2023-02-13T15:21:03.339Z,8.30
2023-02-13T15:23:33.469Z,9.30
2023-02-13T15:26:03.532Z,8.73
2023-02-13T15:28:32.303Z,7.20
2023-02-13T15:31:03.637Z,7.40
2023-02-13T15:33:36.919Z,8.60
2023-02-13T15:36:07.853Z,9.00
2023-02-13T15:38:37.929Z,7.67
2023-02-13T15:41:10.659Z,8.17
2023-02-13T15:43:40.947Z,7.60
2023-02-13T15:46:20.689Z,7.57
2023-02-13T15:48:49.487Z,10.30
2023-02-13T15:51:21.789Z,10.10
2023-02-13T15:53:53.562Z,10.90
2023-02-13T15:56:21.547Z,9.53
2023-02-13T15:58:50.120Z,8.30
2023-02-13T16:01:19.363Z,8.93
2023-02-13T16:03:50.162Z,8.30
2023-02-13T16:06:21.595Z,8.17
2023-02-13T16:08:54.909Z,7.20
2023-02-13T16:11:36.358Z,7.63
2023-02-13T16:14:18.831Z,8.10
2023-02-13T16:16:51.445Z,9.40
2023-02-13T16:19:25.818Z,8.43
2023-02-13T16:21:55.190Z,9.10
2023-02-13T16:24:25.538Z,8.03
2023-02-13T16:26:53.831Z,9.17
2023-02-13T16:29:23.532Z,8.90
2023-02-13T16:31:52.995Z,9.50
2023-02-13T16:34:26.842Z,9.40
2023-02-13T16:36:55.747Z,9.43
2023-02-13T16:39:29.976Z,8.90
2023-02-13T16:41:58.489Z,8.93
2023-02-13T16:44:28.847Z,10.13
2023-02-13T16:46:58.792Z,9.57
2023-02-13T16:49:30.084Z,8.70
2023-02-13T16:52:18.228Z,9.07
2023-02-13T16:54:55.280Z,8.90
2023-02-13T16:57:26.337Z,8.10
2023-02-13T17:00:00.762Z,9.90
2023-02-13T17:02:29.651Z,8.60
2023-02-13T17:04:59.883Z,8.10
2023-02-13T17:07:29.095Z,9.40
2023-02-13T17:10:01.124Z,9.40
2023-02-13T17:12:30.852Z,10.53
2023-02-13T17:14:59.844Z,10.40
2023-02-13T17:17:29.972Z,8.60
2023-02-13T17:19:58.228Z,11.70
2023-02-13T17:22:32.989Z,9.50
2023-02-13T17:25:03.551Z,9.87
2023-02-13T17:27:31.407Z,9.40
2023-02-13T17:29:59.179Z,10.20
2023-02-13T17:32:28.828Z,8.90
2023-02-13T17:34:56.736Z,9.90
2023-02-13T17:37:26.416Z,10.07
2023-02-13T17:39:54.860Z,9.50
2023-02-13T17:42:26.820Z,11.13
2023-02-13T17:44:55.590Z,9.73
2023-02-13T17:47:24.117Z,10.07
2023-02-13T17:49:55.130Z,11.27
2023-02-13T17:52:28.155Z,10.90
2023-02-13T17:54:55.912Z,10.53
2023-02-13T17:57:25.031Z,9.63
2023-02-13T17:59:52.834Z,9.70
2023-02-13T18:02:22.835Z,9.57
2023-02-13T18:04:51.248Z,8.70
2023-02-13T18:07:21.230Z,11.90
2023-02-13T18:09:49.037Z,10.23
2023-02-13T18:12:18.902Z,9.10
2023-02-13T18:14:48.364Z,9.67
2023-02-13T18:17:16.790Z,9.83
2023-02-13T18:19:44.858Z,10.50
2023-02-13T18:22:13.371Z,10.73
2023-02-13T18:24:42.732Z,9.40
2023-02-13T18:27:12.233Z,10.90
2023-02-13T18:29:40.260Z,10.60
2023-02-13T18:32:10.703Z,9.37
2023-02-13T18:34:39.151Z,10.50
2023-02-13T18:37:08.461Z,9.83
2023-02-13T18:39:36.371Z,10.80
2023-02-13T18:42:04.456Z,10.77
2023-02-13T18:44:32.297Z,10.80
2023-02-13T18:47:00.207Z,10.53
2023-02-13T18:49:29.355Z,11.30
2023-02-13T18:51:57.184Z,11.03
2023-02-13T18:54:25.215Z,11.30
2023-02-13T18:56:52.947Z,11.63
2023-02-13T18:59:20.677Z,11.93
2023-02-13T19:01:48.449Z,11.60
2023-02-13T19:04:16.427Z,13.83
2023-02-13T19:06:45.962Z,11.80
2023-02-13T19:09:14.093Z,11.13
2023-02-13T19:11:42.672Z,12.93
2023-02-13T19:14:13.965Z,12.80
2023-02-13T19:16:42.282Z,11.73
2023-02-13T19:19:10.372Z,12.60
2023-02-13T19:21:39.663Z,10.67
2023-02-13T19:24:11.875Z,11.80
2023-02-13T19:26:39.653Z,12.47
2023-02-13T19:29:07.400Z,11.70
2023-02-13T19:31:35.509Z,12.70
2023-02-13T19:34:05.574Z,14.07
2023-02-13T19:36:33.767Z,12.97
2023-02-13T19:39:03.726Z,11.70
2023-02-13T19:41:33.418Z,11.50
2023-02-13T19:44:01.720Z,11.30
2023-02-13T19:46:31.186Z,13.27
2023-02-13T19:48:59.181Z,11.80
2023-02-13T19:51:29.102Z,12.50
2023-02-13T19:53:58.071Z,11.90
2023-02-13T19:56:27.400Z,11.47
2023-02-13T19:58:57.494Z,12.43
2023-02-13T20:01:26.815Z,12.03
2023-02-13T20:03:55.439Z,12.57
2023-02-13T20:06:25.263Z,13.00
2023-02-13T20:08:53.846Z,13.90
2023-02-13T20:11:22.779Z,12.47
2023-02-13T20:13:55.365Z,12.17
2023-02-13T20:16:24.920Z,13.70
2023-02-13T20:18:52.895Z,12.73
2023-02-13T20:21:20.789Z,11.23
2023-02-13T20:23:50.678Z,11.90
2023-02-13T20:26:19.365Z,14.10
2023-02-13T20:28:48.373Z,12.83
2023-02-13T20:31:17.858Z,11.03
2023-02-13T20:33:47.842Z,13.37
2023-02-13T20:36:17.999Z,11.00
2023-02-13T20:38:45.845Z,11.50
2023-02-13T20:41:16.145Z,10.93
2023-02-13T20:43:44.226Z,10.80
2023-02-13T20:46:13.000Z,9.70
2023-02-13T20:48:41.898Z,12.17
2023-02-13T20:51:13.456Z,10.30
2023-02-13T20:53:42.024Z,10.90
2023-02-13T20:56:11.607Z,13.40
2023-02-13T20:58:40.288Z,11.47
2023-02-13T21:01:12.712Z,10.90
2023-02-13T21:03:41.176Z,11.10
2023-02-13T21:06:11.862Z,11.93
2023-02-13T21:08:39.966Z,11.70
2023-02-13T21:11:09.121Z,11.07
2023-02-13T21:13:38.792Z,10.30
2023-02-13T21:16:09.141Z,11.83
2023-02-13T21:18:37.889Z,11.43
2023-02-13T21:21:06.539Z,12.23
2023-02-13T21:23:36.076Z,11.63
2023-02-13T21:26:04.618Z,12.97
2023-02-13T21:28:33.130Z,10.33
2023-02-13T21:31:06.804Z,11.20
2023-02-13T21:33:34.590Z,10.37
2023-02-13T21:36:03.629Z,11.43
2023-02-13T21:38:31.551Z,12.03
2023-02-13T21:41:06.485Z,11.70
2023-02-13T21:43:37.579Z,11.20
2023-02-13T21:46:09.660Z,12.73
2023-02-13T21:48:37.746Z,12.43
2023-02-13T21:51:08.529Z,10.60
2023-02-13T21:53:36.469Z,10.93
2023-02-13T21:56:06.645Z,12.07
2023-02-13T21:58:36.690Z,12.43
2023-02-13T22:01:17.467Z,11.73
2023-02-13T22:03:52.958Z,12.40
2023-02-13T22:06:21.694Z,12.10
2023-02-13T22:08:50.095Z,11.17
2023-02-13T22:11:19.252Z,10.57
2023-02-13T22:13:46.986Z,10.93
2023-02-13T22:16:18.474Z,11.60
2023-02-13T22:18:48.742Z,8.90
2023-02-13T22:21:18.543Z,9.50
2023-02-13T22:23:47.813Z,9.03
2023-02-13T22:26:19.582Z,8.90
2023-02-13T22:28:47.693Z,8.67
2023-02-13T22:31:16.794Z,8.70
2023-02-13T22:33:47.777Z,8.50
2023-02-13T22:36:18.266Z,10.07
2023-02-13T22:38:46.212Z,10.13
2023-02-13T22:41:16.832Z,10.30
2023-02-13T22:43:46.416Z,11.30
2023-02-13T22:46:16.630Z,11.57
2023-02-13T22:48:46.005Z,11.50
2023-02-13T22:51:15.692Z,11.17
2023-02-13T22:53:44.059Z,11.17
2023-02-13T22:56:12.791Z,11.30
2023-02-13T23:01:19.284Z,11.40
2023-02-13T23:03:47.516Z,10.00
2023-02-13T23:06:16.504Z,10.90
2023-02-13T23:08:44.878Z,12.00
2023-02-13T23:11:32.794Z,12.70
2023-02-13T23:14:00.832Z,12.03
2023-02-13T23:16:51.555Z,10.30
2023-02-13T23:19:18.575Z,10.33
2023-02-13T23:21:46.342Z,12.40
2023-02-13T23:24:14.108Z,10.60
2023-02-13T23:26:41.864Z,11.33
2023-02-13T23:29:09.709Z,10.27
2023-02-13T23:31:39.040Z,9.80
2023-02-13T23:34:06.837Z,11.23
2023-02-13T23:36:34.802Z,11.00
2023-02-13T23:39:02.574Z,10.70
2023-02-13T23:41:30.422Z,11.00
2023-02-13T23:43:58.206Z,10.63
2023-02-13T23:46:26.108Z,10.67
2023-02-13T23:48:55.243Z,9.70
2023-02-13T23:51:25.418Z,11.13
2023-02-13T23:53:55.966Z,10.80
2023-02-13T23:56:24.495Z,10.50
2023-02-13T23:58:52.309Z,8.47
